DLH12 EDDF-EDDM
Flight info
| Callsign | DLH12 |
|---|---|
| Flight time | 0h 39m |
| Altitude | 21000 |
| Route | CINDY8S/18 CINDY Z74 HAREM T104 ROKIL ROKIL1B |
| Aircraft | A388/J-SADE2E3FGHIJ3J4J5M1RWXY/LB1D1 |
Departure
| Time | 2026-05-06 19:34 |
|---|---|
| Airport | Frankfurt Main Airport (EDDF) |
Arrival
| Time | 2026-05-06 20:13 |
|---|---|
| Airport | Munich Airport (EDDM) |
| Time | Latitude | Longitude | Altitude | Speed | Heading |
|---|---|---|---|---|---|
| 2026-05-06 18:45 | 50.04724 | 8.56276 | 364 ft | 0 kts | 340° |
| 2026-05-06 19:22 | 50.04720 | 8.56278 | 361 ft | 3 kts | 340° |
| 2026-05-06 19:23 | 50.04695 | 8.56293 | 364 ft | 4 kts | 339° |
| 2026-05-06 19:23 | 50.04671 | 8.56310 | 369 ft | 4 kts | 321° |
| 2026-05-06 19:23 | 50.04655 | 8.56341 | 367 ft | 4 kts | 286° |
| 2026-05-06 19:23 | 50.04654 | 8.56380 | 365 ft | 3 kts | 251° |
| 2026-05-06 19:24 | 50.04655 | 8.56386 | 365 ft | 2 kts | 249° |
| 2026-05-06 19:27 | 50.04642 | 8.56325 | 360 ft | 24 kts | 252° |
| 2026-05-06 19:28 | 50.04584 | 8.56080 | 368 ft | 24 kts | 250° |
| 2026-05-06 19:28 | 50.04481 | 8.55934 | 366 ft | 20 kts | 200° |
| 2026-05-06 19:28 | 50.04341 | 8.55926 | 367 ft | 22 kts | 163° |
| 2026-05-06 19:28 | 50.04228 | 8.55864 | 367 ft | 19 kts | 239° |
| 2026-05-06 19:29 | 50.04178 | 8.55670 | 364 ft | 22 kts | 249° |
| 2026-05-06 19:29 | 50.04115 | 8.55416 | 361 ft | 37 kts | 249° |
| 2026-05-06 19:29 | 50.04029 | 8.55048 | 364 ft | 33 kts | 247° |
| 2026-05-06 19:29 | 50.03949 | 8.54721 | 360 ft | 35 kts | 250° |
| 2026-05-06 19:30 | 50.03854 | 8.54373 | 360 ft | 33 kts | 243° |
| 2026-05-06 19:30 | 50.03766 | 8.54069 | 355 ft | 30 kts | 249° |
| 2026-05-06 19:30 | 50.03695 | 8.53779 | 351 ft | 28 kts | 249° |
| 2026-05-06 19:30 | 50.03630 | 8.53510 | 353 ft | 26 kts | 249° |
| 2026-05-06 19:31 | 50.03567 | 8.53250 | 354 ft | 25 kts | 249° |
| 2026-05-06 19:31 | 50.03505 | 8.52996 | 352 ft | 25 kts | 248° |
| 2026-05-06 19:31 | 50.03445 | 8.52771 | 337 ft | 0 kts | 248° |
| 2026-05-06 19:32 | 50.03445 | 8.52770 | 337 ft | 1 kts | 248° |
| 2026-05-06 19:32 | 50.03421 | 8.52675 | 338 ft | 12 kts | 248° |
| 2026-05-06 19:33 | 50.03371 | 8.52601 | 336 ft | 10 kts | 185° |
| 2026-05-06 19:33 | 50.03345 | 8.52596 | 339 ft | 0 kts | 184° |
| 2026-05-06 19:33 | 50.03342 | 8.52596 | 339 ft | 0 kts | 183° |
| 2026-05-06 19:34 | 50.02996 | 8.52601 | 338 ft | 102 kts | 178° |
| 2026-05-06 19:34 | 50.02001 | 8.52615 | 392 ft | 170 kts | 181° |
| 2026-05-06 19:34 | 50.00764 | 8.52674 | 926 ft | 184 kts | 179° |
| 2026-05-06 19:34 | 49.99441 | 8.52717 | 1265 ft | 198 kts | 182° |
| 2026-05-06 19:35 | 49.98018 | 8.52697 | 1403 ft | 210 kts | 180° |
| 2026-05-06 19:35 | 49.96545 | 8.53364 | 1525 ft | 240 kts | 147° |
| 2026-05-06 19:35 | 49.95442 | 8.55319 | 2501 ft | 238 kts | 120° |
| 2026-05-06 19:35 | 49.94684 | 8.57570 | 3464 ft | 240 kts | 117° |
| 2026-05-06 19:36 | 49.94070 | 8.60007 | 3852 ft | 243 kts | 104° |
| 2026-05-06 19:36 | 49.93911 | 8.62625 | 4010 ft | 248 kts | 91° |
| 2026-05-06 19:36 | 49.93878 | 8.65431 | 4028 ft | 269 kts | 92° |
| 2026-05-06 19:36 | 49.93680 | 8.68370 | 4020 ft | 275 kts | 107° |
| 2026-05-06 19:37 | 49.92763 | 8.70926 | 4201 ft | 275 kts | 136° |
| 2026-05-06 19:37 | 49.91307 | 8.72655 | 4947 ft | 271 kts | 150° |
| 2026-05-06 19:37 | 49.89932 | 8.74019 | 5890 ft | 271 kts | 150° |
| 2026-05-06 19:37 | 49.88911 | 8.75199 | 6508 ft | 276 kts | 141° |
| 2026-05-06 19:38 | 49.87331 | 8.78427 | 7737 ft | 286 kts | 121° |
| 2026-05-06 19:38 | 49.86374 | 8.81176 | 8647 ft | 291 kts | 121° |
| 2026-05-06 19:38 | 49.85395 | 8.83919 | 9480 ft | 297 kts | 121° |
| 2026-05-06 19:38 | 49.84379 | 8.86725 | 9837 ft | 299 kts | 121° |
| 2026-05-06 19:39 | 49.83326 | 8.89622 | 9990 ft | 318 kts | 121° |
| 2026-05-06 19:39 | 49.82196 | 8.92717 | 10001 ft | 349 kts | 121° |
| 2026-05-06 19:39 | 49.80952 | 8.96125 | 9997 ft | 377 kts | 121° |
| 2026-05-06 19:39 | 49.79625 | 8.99769 | 9999 ft | 395 kts | 121° |
| 2026-05-06 19:40 | 49.78264 | 9.03509 | 9997 ft | 400 kts | 121° |
| 2026-05-06 19:40 | 49.76935 | 9.07270 | 9989 ft | 396 kts | 118° |
| 2026-05-06 19:40 | 49.75510 | 9.10906 | 10000 ft | 393 kts | 129° |
| 2026-05-06 19:40 | 49.73800 | 9.14152 | 10357 ft | 394 kts | 131° |
| 2026-05-06 19:41 | 49.72048 | 9.17448 | 11593 ft | 382 kts | 130° |
| 2026-05-06 19:41 | 49.70376 | 9.20596 | 12451 ft | 384 kts | 130° |
| 2026-05-06 19:41 | 49.68665 | 9.23816 | 13174 ft | 388 kts | 130° |
| 2026-05-06 19:41 | 49.66943 | 9.27056 | 13837 ft | 392 kts | 130° |
| 2026-05-06 19:42 | 49.65231 | 9.30278 | 14468 ft | 395 kts | 131° |
| 2026-05-06 19:42 | 49.63463 | 9.33603 | 14732 ft | 396 kts | 130° |
| 2026-05-06 19:42 | 49.61684 | 9.36944 | 14831 ft | 404 kts | 131° |
| 2026-05-06 19:42 | 49.59876 | 9.40331 | 14814 ft | 414 kts | 130° |
| 2026-05-06 19:43 | 49.58064 | 9.43723 | 14814 ft | 414 kts | 130° |
| 2026-05-06 19:43 | 49.56247 | 9.47127 | 14812 ft | 411 kts | 131° |
| 2026-05-06 19:43 | 49.54428 | 9.50527 | 14820 ft | 410 kts | 131° |
| 2026-05-06 19:43 | 49.52609 | 9.53921 | 14818 ft | 410 kts | 131° |
| 2026-05-06 19:44 | 49.50794 | 9.57301 | 14817 ft | 410 kts | 131° |
| 2026-05-06 19:44 | 49.48976 | 9.60684 | 14821 ft | 410 kts | 131° |
| 2026-05-06 19:44 | 49.47145 | 9.64085 | 14825 ft | 410 kts | 131° |
| 2026-05-06 19:44 | 49.45934 | 9.66333 | 14827 ft | 410 kts | 131° |
| 2026-05-06 19:45 | 49.43514 | 9.70820 | 14826 ft | 410 kts | 131° |
| 2026-05-06 19:45 | 49.42291 | 9.73085 | 14827 ft | 410 kts | 131° |
| 2026-05-06 19:45 | 49.40470 | 9.76453 | 14828 ft | 410 kts | 131° |
| 2026-05-06 19:45 | 49.38641 | 9.79830 | 14829 ft | 410 kts | 131° |
| 2026-05-06 19:46 | 49.36802 | 9.83225 | 14830 ft | 410 kts | 131° |
| 2026-05-06 19:46 | 49.34990 | 9.86566 | 14827 ft | 412 kts | 132° |
| 2026-05-06 19:46 | 49.33156 | 9.89941 | 14831 ft | 413 kts | 132° |
| 2026-05-06 19:46 | 49.31304 | 9.93345 | 14832 ft | 412 kts | 132° |
| 2026-05-06 19:47 | 49.29473 | 9.96706 | 14828 ft | 411 kts | 132° |
| 2026-05-06 19:47 | 49.27638 | 10.00069 | 14830 ft | 411 kts | 132° |
| 2026-05-06 19:47 | 49.25798 | 10.03436 | 14828 ft | 411 kts | 132° |
| 2026-05-06 19:47 | 49.23955 | 10.06806 | 14828 ft | 411 kts | 132° |
| 2026-05-06 19:48 | 49.22127 | 10.10143 | 14830 ft | 411 kts | 132° |
| 2026-05-06 19:48 | 49.20281 | 10.13511 | 14842 ft | 411 kts | 132° |
| 2026-05-06 19:48 | 49.18420 | 10.16862 | 14852 ft | 411 kts | 133° |
| 2026-05-06 19:48 | 49.16584 | 10.20005 | 14851 ft | 411 kts | 134° |
| 2026-05-06 19:49 | 49.14622 | 10.23307 | 14848 ft | 412 kts | 135° |
| 2026-05-06 19:49 | 49.12682 | 10.26528 | 14853 ft | 412 kts | 135° |
| 2026-05-06 19:49 | 49.10713 | 10.29679 | 14871 ft | 412 kts | 136° |
| 2026-05-06 19:49 | 49.08710 | 10.32853 | 14873 ft | 412 kts | 136° |
| 2026-05-06 19:50 | 49.06723 | 10.36013 | 14871 ft | 413 kts | 136° |
| 2026-05-06 19:50 | 49.04746 | 10.39172 | 14869 ft | 412 kts | 136° |
| 2026-05-06 19:50 | 49.02765 | 10.42345 | 14872 ft | 412 kts | 136° |
| 2026-05-06 19:50 | 49.00789 | 10.45508 | 14885 ft | 412 kts | 136° |
| 2026-05-06 19:51 | 48.98798 | 10.48689 | 14881 ft | 412 kts | 136° |
| 2026-05-06 19:51 | 48.96823 | 10.51836 | 14882 ft | 412 kts | 136° |
| 2026-05-06 19:51 | 48.94839 | 10.54996 | 14882 ft | 412 kts | 136° |
| 2026-05-06 19:51 | 48.92861 | 10.58142 | 14875 ft | 413 kts | 136° |
| 2026-05-06 19:52 | 48.90881 | 10.61291 | 14881 ft | 416 kts | 137° |
| 2026-05-06 19:52 | 48.88876 | 10.64475 | 14884 ft | 416 kts | 137° |
| 2026-05-06 19:52 | 48.86871 | 10.67656 | 14884 ft | 416 kts | 137° |
| 2026-05-06 19:52 | 48.84845 | 10.70867 | 14887 ft | 416 kts | 137° |
| 2026-05-06 19:53 | 48.82848 | 10.74027 | 14880 ft | 416 kts | 137° |
| 2026-05-06 19:53 | 48.80838 | 10.77203 | 14879 ft | 416 kts | 137° |
| 2026-05-06 19:53 | 48.78824 | 10.80378 | 14871 ft | 415 kts | 137° |
| 2026-05-06 19:53 | 48.76820 | 10.83523 | 14875 ft | 414 kts | 137° |
| 2026-05-06 19:54 | 48.74823 | 10.86652 | 14868 ft | 414 kts | 137° |
| 2026-05-06 19:54 | 48.72836 | 10.89761 | 14864 ft | 414 kts | 137° |
| 2026-05-06 19:54 | 48.70826 | 10.92903 | 14865 ft | 414 kts | 137° |
| 2026-05-06 19:54 | 48.68809 | 10.96051 | 14863 ft | 415 kts | 137° |
| 2026-05-06 19:55 | 48.66797 | 10.99187 | 14862 ft | 415 kts | 137° |
| 2026-05-06 19:55 | 48.64780 | 11.02324 | 14858 ft | 415 kts | 137° |
| 2026-05-06 19:55 | 48.62789 | 11.05416 | 14859 ft | 415 kts | 137° |
| 2026-05-06 19:55 | 48.60770 | 11.08549 | 14858 ft | 414 kts | 137° |
| 2026-05-06 19:56 | 48.58736 | 11.11648 | 14857 ft | 414 kts | 140° |
| 2026-05-06 19:56 | 48.56516 | 11.14421 | 14858 ft | 411 kts | 147° |
| 2026-05-06 19:56 | 48.54208 | 11.16856 | 14858 ft | 412 kts | 144° |
| 2026-05-06 19:56 | 48.52221 | 11.19953 | 14863 ft | 417 kts | 130° |
| 2026-05-06 19:57 | 48.50776 | 11.23802 | 14879 ft | 423 kts | 115° |
| 2026-05-06 19:57 | 48.50004 | 11.28124 | 14874 ft | 429 kts | 101° |
| 2026-05-06 19:57 | 48.49959 | 11.32626 | 14866 ft | 435 kts | 86° |
| 2026-05-06 19:57 | 48.50649 | 11.37102 | 14870 ft | 440 kts | 72° |
| 2026-05-06 19:58 | 48.52005 | 11.41171 | 14863 ft | 442 kts | 59° |
| 2026-05-06 19:58 | 48.53668 | 11.45138 | 14857 ft | 442 kts | 61° |
| 2026-05-06 19:58 | 48.55007 | 11.49246 | 14858 ft | 441 kts | 69° |
| 2026-05-06 19:58 | 48.55985 | 11.53522 | 14829 ft | 416 kts | 76° |
| 2026-05-06 19:59 | 48.56525 | 11.57626 | 14858 ft | 386 kts | 91° |
| 2026-05-06 19:59 | 48.56255 | 11.61571 | 14856 ft | 371 kts | 110° |
| 2026-05-06 19:59 | 48.55370 | 11.65209 | 14854 ft | 371 kts | 109° |
| 2026-05-06 19:59 | 48.54899 | 11.69059 | 14857 ft | 376 kts | 100° |
| 2026-05-06 20:00 | 48.54579 | 11.72981 | 14856 ft | 375 kts | 100° |
| 2026-05-06 20:00 | 48.54261 | 11.76872 | 14846 ft | 375 kts | 100° |
| 2026-05-06 20:00 | 48.53955 | 11.80793 | 14859 ft | 375 kts | 100° |
| 2026-05-06 20:00 | 48.53642 | 11.84696 | 14853 ft | 374 kts | 102° |
| 2026-05-06 20:01 | 48.53264 | 11.88521 | 14757 ft | 370 kts | 102° |
| 2026-05-06 20:01 | 48.52880 | 11.92383 | 14287 ft | 368 kts | 102° |
| 2026-05-06 20:01 | 48.52504 | 11.96175 | 13617 ft | 366 kts | 102° |
| 2026-05-06 20:01 | 48.52131 | 11.99964 | 12763 ft | 364 kts | 102° |
| 2026-05-06 20:02 | 48.51754 | 12.03726 | 11910 ft | 362 kts | 102° |
| 2026-05-06 20:02 | 48.51374 | 12.07469 | 11132 ft | 358 kts | 103° |
| 2026-05-06 20:02 | 48.50932 | 12.11152 | 10324 ft | 356 kts | 104° |
| 2026-05-06 20:02 | 48.50466 | 12.14817 | 9520 ft | 352 kts | 107° |
| 2026-05-06 20:03 | 48.49592 | 12.18147 | 8622 ft | 343 kts | 127° |
| 2026-05-06 20:03 | 48.48141 | 12.20907 | 7813 ft | 335 kts | 134° |
| 2026-05-06 20:03 | 48.46635 | 12.23592 | 6974 ft | 335 kts | 134° |
| 2026-05-06 20:03 | 48.44971 | 12.25947 | 6025 ft | 329 kts | 153° |
| 2026-05-06 20:04 | 48.43377 | 12.27023 | 5396 ft | 321 kts | 172° |
| 2026-05-06 20:04 | 48.43337 | 12.27039 | 5383 ft | 321 kts | 173° |
| 2026-05-06 20:04 | 48.41206 | 12.27389 | 5041 ft | 292 kts | 190° |
| 2026-05-06 20:04 | 48.39414 | 12.26508 | 4852 ft | 255 kts | 223° |
| 2026-05-06 20:05 | 48.38186 | 12.24799 | 4680 ft | 232 kts | 226° |
| 2026-05-06 20:05 | 48.36922 | 12.23404 | 4544 ft | 216 kts | 225° |
| 2026-05-06 20:05 | 48.36138 | 12.21724 | 4310 ft | 188 kts | 263° |
| 2026-05-06 20:05 | 48.36226 | 12.19821 | 3882 ft | 182 kts | 281° |
| 2026-05-06 20:06 | 48.36473 | 12.17967 | 3819 ft | 179 kts | 279° |
| 2026-05-06 20:06 | 48.36698 | 12.16078 | 3881 ft | 182 kts | 278° |
| 2026-05-06 20:06 | 48.36870 | 12.14299 | 3871 ft | 164 kts | 274° |
| 2026-05-06 20:06 | 48.36888 | 12.12681 | 3883 ft | 146 kts | 269° |
| 2026-05-06 20:07 | 48.36815 | 12.11185 | 3874 ft | 141 kts | 266° |
| 2026-05-06 20:07 | 48.36718 | 12.09765 | 3881 ft | 128 kts | 266° |
| 2026-05-06 20:07 | 48.36623 | 12.08513 | 3873 ft | 119 kts | 266° |
| 2026-05-06 20:07 | 48.36533 | 12.07288 | 3878 ft | 118 kts | 266° |
| 2026-05-06 20:08 | 48.36442 | 12.06067 | 3880 ft | 117 kts | 266° |
| 2026-05-06 20:08 | 48.36348 | 12.04861 | 3879 ft | 115 kts | 266° |
| 2026-05-06 20:08 | 48.36257 | 12.03675 | 3878 ft | 115 kts | 266° |
| 2026-05-06 20:08 | 48.36166 | 12.02480 | 3883 ft | 115 kts | 266° |
| 2026-05-06 20:09 | 48.36072 | 12.01279 | 3876 ft | 115 kts | 266° |
| 2026-05-06 20:09 | 48.35975 | 12.00080 | 3910 ft | 115 kts | 265° |
| 2026-05-06 20:09 | 48.35859 | 11.98880 | 3797 ft | 117 kts | 264° |
| 2026-05-06 20:09 | 48.35750 | 11.97690 | 3679 ft | 115 kts | 264° |
| 2026-05-06 20:10 | 48.35634 | 11.96492 | 3685 ft | 116 kts | 269° |
| 2026-05-06 20:10 | 48.35565 | 11.95295 | 3733 ft | 117 kts | 268° |
| 2026-05-06 20:10 | 48.35481 | 11.94084 | 3438 ft | 115 kts | 264° |
| 2026-05-06 20:10 | 48.35403 | 11.92856 | 3046 ft | 117 kts | 265° |
| 2026-05-06 20:11 | 48.35308 | 11.91686 | 2850 ft | 109 kts | 263° |
| 2026-05-06 20:11 | 48.35208 | 11.90536 | 2710 ft | 117 kts | 264° |
| 2026-05-06 20:11 | 48.35126 | 11.89330 | 2664 ft | 115 kts | 264° |
| 2026-05-06 20:11 | 48.35030 | 11.88134 | 2545 ft | 120 kts | 263° |
| 2026-05-06 20:12 | 48.34955 | 11.86861 | 2353 ft | 126 kts | 263° |
| 2026-05-06 20:12 | 48.34861 | 11.85543 | 2207 ft | 128 kts | 262° |
| 2026-05-06 20:12 | 48.34775 | 11.84197 | 2029 ft | 131 kts | 263° |
| 2026-05-06 20:12 | 48.34675 | 11.82825 | 1849 ft | 129 kts | 259° |
| 2026-05-06 20:13 | 48.34573 | 11.81542 | 1684 ft | 120 kts | 264° |
| 2026-05-06 20:13 | 48.34493 | 11.80293 | 1584 ft | 121 kts | 262° |
| 2026-05-06 20:13 | 48.34382 | 11.79163 | 1491 ft | 96 kts | 260° |
| 2026-05-06 20:13 | 48.34321 | 11.78424 | 1483 ft | 43 kts | 263° |
| 2026-05-06 20:14 | 48.34318 | 11.78089 | 1490 ft | 27 kts | 279° |
| 2026-05-06 20:14 | 48.34356 | 11.77856 | 1477 ft | 19 kts | 291° |
| 2026-05-06 20:14 | 48.34404 | 11.77689 | 1483 ft | 16 kts | 292° |
| 2026-05-06 20:14 | 48.34446 | 11.77538 | 1479 ft | 15 kts | 298° |
| 2026-05-06 20:15 | 48.34518 | 11.77448 | 1478 ft | 13 kts | 343° |
| 2026-05-06 20:15 | 48.34606 | 11.77449 | 1485 ft | 12 kts | 45° |
| 2026-05-06 20:15 | 48.34643 | 11.77622 | 1477 ft | 24 kts | 81° |
| 2026-05-06 20:15 | 48.34663 | 11.77929 | 1490 ft | 31 kts | 84° |
| 2026-05-06 20:16 | 48.34690 | 11.78268 | 1486 ft | 34 kts | 83° |
| 2026-05-06 20:16 | 48.34719 | 11.78628 | 1479 ft | 36 kts | 84° |
| 2026-05-06 20:16 | 48.34743 | 11.79010 | 1490 ft | 38 kts | 84° |
| 2026-05-06 20:16 | 48.34776 | 11.79390 | 1483 ft | 24 kts | 84° |
| 2026-05-06 20:17 | 48.34829 | 11.79544 | 1477 ft | 18 kts | 15° |
| 2026-05-06 20:17 | 48.34938 | 11.79548 | 1478 ft | 15 kts | 354° |
| 2026-05-06 20:17 | 48.35045 | 11.79531 | 1477 ft | 17 kts | 353° |
| 2026-05-06 20:17 | 48.35158 | 11.79510 | 1477 ft | 16 kts | 352° |
| 2026-05-06 20:18 | 48.35260 | 11.79488 | 1478 ft | 13 kts | 352° |
| 2026-05-06 20:18 | 48.35364 | 11.79469 | 1478 ft | 15 kts | 353° |
| 2026-05-06 20:18 | 48.35448 | 11.79449 | 1481 ft | 5 kts | 314° |
| 2026-05-06 20:18 | 48.35457 | 11.79416 | 1479 ft | 1 kts | 275° |
| 2026-05-06 20:19 | 48.35457 | 11.79395 | 1482 ft | 3 kts | 267° |
| 2026-05-06 20:19 | 48.35457 | 11.79380 | 1480 ft | 0 kts | 265° |
| 2026-05-06 20:19 | 48.35454 | 11.79323 | 1489 ft | 5 kts | 265° |
| 2026-05-06 20:19 | 48.35454 | 11.79321 | 1488 ft | 0 kts | 265° |